sensor_id;sensor_type;location;lat;lon;timestamp;temperature;humidity
69189;DHT22;56302;52.322;5.926;2023-02-13T00:02:01;5.50;93.80
69189;DHT22;56302;52.322;5.926;2023-02-13T00:04:26;5.50;93.80
69189;DHT22;56302;52.322;5.926;2023-02-13T00:06:52;5.50;93.80
69189;DHT22;56302;52.322;5.926;2023-02-13T00:09:17;5.50;93.70
69189;DHT22;56302;52.322;5.926;2023-02-13T00:11:43;5.50;93.60
69189;DHT22;56302;52.322;5.926;2023-02-13T00:14:08;5.50;93.70
69189;DHT22;56302;52.322;5.926;2023-02-13T00:16:34;5.50;93.80
69189;DHT22;56302;52.322;5.926;2023-02-13T00:19:00;5.50;93.90
69189;DHT22;56302;52.322;5.926;2023-02-13T00:21:25;5.50;93.90
69189;DHT22;56302;52.322;5.926;2023-02-13T00:23:51;5.50;94.10
69189;DHT22;56302;52.322;5.926;2023-02-13T00:26:17;5.40;94.40
69189;DHT22;56302;52.322;5.926;2023-02-13T00:28:43;5.40;94.30
69189;DHT22;56302;52.322;5.926;2023-02-13T00:31:11;5.40;94.30
69189;DHT22;56302;52.322;5.926;2023-02-13T00:33:37;5.50;94.20
69189;DHT22;56302;52.322;5.926;2023-02-13T00:36:11;5.40;94.00
69189;DHT22;56302;52.322;5.926;2023-02-13T00:38:38;5.50;93.90
69189;DHT22;56302;52.322;5.926;2023-02-13T00:41:05;5.50;93.90
69189;DHT22;56302;52.322;5.926;2023-02-13T00:43:31;5.50;93.90
69189;DHT22;56302;52.322;5.926;2023-02-13T00:45:57;5.50;93.90
69189;DHT22;56302;52.322;5.926;2023-02-13T00:48:23;5.50;93.80
69189;DHT22;56302;52.322;5.926;2023-02-13T00:50:49;5.50;93.80
69189;DHT22;56302;52.322;5.926;2023-02-13T00:53:17;5.40;93.80
69189;DHT22;56302;52.322;5.926;2023-02-13T00:55:42;5.50;93.90
69189;DHT22;56302;52.322;5.926;2023-02-13T00:58:08;5.40;94.30
69189;DHT22;56302;52.322;5.926;2023-02-13T01:00:33;5.40;94.30
69189;DHT22;56302;52.322;5.926;2023-02-13T01:02:59;5.40;94.30
69189;DHT22;56302;52.322;5.926;2023-02-13T01:05:24;5.40;94.40
69189;DHT22;56302;52.322;5.926;2023-02-13T01:07:52;5.40;94.30
69189;DHT22;56302;52.322;5.926;2023-02-13T01:10:18;5.40;94.30
69189;DHT22;56302;52.322;5.926;2023-02-13T01:12:43;5.40;94.20
69189;DHT22;56302;52.322;5.926;2023-02-13T01:15:09;5.40;94.20
69189;DHT22;56302;52.322;5.926;2023-02-13T01:17:35;5.40;94.00
69189;DHT22;56302;52.322;5.926;2023-02-13T01:20:00;5.40;93.90
69189;DHT22;56302;52.322;5.926;2023-02-13T01:22:26;5.40;93.80
69189;DHT22;56302;52.322;5.926;2023-02-13T01:24:51;5.40;94.00
69189;DHT22;56302;52.322;5.926;2023-02-13T01:27:17;5.40;94.20
69189;DHT22;56302;52.322;5.926;2023-02-13T01:29:42;5.40;94.40
69189;DHT22;56302;52.322;5.926;2023-02-13T01:32:08;5.40;94.50
69189;DHT22;56302;52.322;5.926;2023-02-13T01:34:33;5.40;94.80
69189;DHT22;56302;52.322;5.926;2023-02-13T01:36:59;5.30;95.00
69189;DHT22;56302;52.322;5.926;2023-02-13T01:39:24;5.30;94.90
69189;DHT22;56302;52.322;5.926;2023-02-13T01:41:50;5.30;94.90
69189;DHT22;56302;52.322;5.926;2023-02-13T01:47:16;5.40;94.70
69189;DHT22;56302;52.322;5.926;2023-02-13T01:49:44;5.40;94.70
69189;DHT22;56302;52.322;5.926;2023-02-13T01:52:12;5.30;94.70
69189;DHT22;56302;52.322;5.926;2023-02-13T01:54:38;5.30;94.90
69189;DHT22;56302;52.322;5.926;2023-02-13T01:57:08;5.30;95.30
69189;DHT22;56302;52.322;5.926;2023-02-13T01:59:41;5.30;95.60
69189;DHT22;56302;52.322;5.926;2023-02-13T02:02:08;5.30;95.50
69189;DHT22;56302;52.322;5.926;2023-02-13T02:04:37;5.30;95.70
69189;DHT22;56302;52.322;5.926;2023-02-13T02:07:07;5.30;95.50
69189;DHT22;56302;52.322;5.926;2023-02-13T02:09:38;5.30;95.30
69189;DHT22;56302;52.322;5.926;2023-02-13T02:12:24;5.30;95.10
69189;DHT22;56302;52.322;5.926;2023-02-13T02:14:52;5.30;95.10
69189;DHT22;56302;52.322;5.926;2023-02-13T02:17:21;5.30;94.80
69189;DHT22;56302;52.322;5.926;2023-02-13T02:20:34;5.30;94.60
69189;DHT22;56302;52.322;5.926;2023-02-13T02:32:01;5.30;94.90
69189;DHT22;56302;52.322;5.926;2023-02-13T02:34:55;5.30;94.90
69189;DHT22;56302;52.322;5.926;2023-02-13T02:37:46;5.30;94.70
69189;DHT22;56302;52.322;5.926;2023-02-13T02:43:05;5.30;94.80
69189;DHT22;56302;52.322;5.926;2023-02-13T02:51:21;5.30;95.20
69189;DHT22;56302;52.322;5.926;2023-02-13T02:54:02;5.30;95.20
69189;DHT22;56302;52.322;5.926;2023-02-13T02:56:49;5.30;95.20
69189;DHT22;56302;52.322;5.926;2023-02-13T02:59:17;5.30;95.20
69189;DHT22;56302;52.322;5.926;2023-02-13T03:02:03;5.20;95.40
69189;DHT22;56302;52.322;5.926;2023-02-13T03:04:53;5.20;95.60
69189;DHT22;56302;52.322;5.926;2023-02-13T03:07:37;5.20;95.90
69189;DHT22;56302;52.322;5.926;2023-02-13T03:10:09;5.20;95.90
69189;DHT22;56302;52.322;5.926;2023-02-13T03:13:00;5.20;95.70
69189;DHT22;56302;52.322;5.926;2023-02-13T03:15:47;5.20;95.70
69189;DHT22;56302;52.322;5.926;2023-02-13T03:18:35;5.20;95.80
69189;DHT22;56302;52.322;5.926;2023-02-13T03:21:45;5.20;95.90
69189;DHT22;56302;52.322;5.926;2023-02-13T03:30:48;5.30;95.40
69189;DHT22;56302;52.322;5.926;2023-02-13T03:42:03;5.20;95.30
69189;DHT22;56302;52.322;5.926;2023-02-13T03:47:00;5.30;95.00
69189;DHT22;56302;52.322;5.926;2023-02-13T03:49:40;5.30;95.00
69189;DHT22;56302;52.322;5.926;2023-02-13T03:52:42;5.20;95.10
69189;DHT22;56302;52.322;5.926;2023-02-13T03:58:08;5.20;95.20
69189;DHT22;56302;52.322;5.926;2023-02-13T04:00:56;5.30;95.30
69189;DHT22;56302;52.322;5.926;2023-02-13T04:03:36;5.20;95.10
69189;DHT22;56302;52.322;5.926;2023-02-13T04:06:13;5.30;95.20
69189;DHT22;56302;52.322;5.926;2023-02-13T04:08:40;5.30;95.30
69189;DHT22;56302;52.322;5.926;2023-02-13T04:11:14;5.20;95.50
69189;DHT22;56302;52.322;5.926;2023-02-13T04:13:47;5.30;95.40
69189;DHT22;56302;52.322;5.926;2023-02-13T04:16:23;5.30;95.30
69189;DHT22;56302;52.322;5.926;2023-02-13T04:18:52;5.30;95.20
69189;DHT22;56302;52.322;5.926;2023-02-13T04:21:18;5.40;95.30
69189;DHT22;56302;52.322;5.926;2023-02-13T04:23:44;5.40;95.40
69189;DHT22;56302;52.322;5.926;2023-02-13T04:26:15;5.30;95.30
69189;DHT22;56302;52.322;5.926;2023-02-13T04:28:41;5.30;95.40
69189;DHT22;56302;52.322;5.926;2023-02-13T04:31:07;5.30;95.40
69189;DHT22;56302;52.322;5.926;2023-02-13T04:33:32;5.30;95.30
69189;DHT22;56302;52.322;5.926;2023-02-13T04:35:58;5.40;95.40
69189;DHT22;56302;52.322;5.926;2023-02-13T04:38:23;5.40;95.10
69189;DHT22;56302;52.322;5.926;2023-02-13T04:40:49;5.40;95.10
69189;DHT22;56302;52.322;5.926;2023-02-13T04:43:14;5.40;95.20
69189;DHT22;56302;52.322;5.926;2023-02-13T04:45:40;5.40;95.30
69189;DHT22;56302;52.322;5.926;2023-02-13T04:48:06;5.40;95.30
69189;DHT22;56302;52.322;5.926;2023-02-13T04:50:31;5.40;95.40
69189;DHT22;56302;52.322;5.926;2023-02-13T04:52:57;5.30;95.40
69189;DHT22;56302;52.322;5.926;2023-02-13T04:55:24;5.30;95.40
69189;DHT22;56302;52.322;5.926;2023-02-13T04:57:54;5.30;95.40
69189;DHT22;56302;52.322;5.926;2023-02-13T05:00:27;5.30;95.40
69189;DHT22;56302;52.322;5.926;2023-02-13T05:02:53;5.30;95.40
69189;DHT22;56302;52.322;5.926;2023-02-13T05:05:19;5.30;95.30
69189;DHT22;56302;52.322;5.926;2023-02-13T05:07:44;5.30;95.40
69189;DHT22;56302;52.322;5.926;2023-02-13T05:10:11;5.30;95.50
69189;DHT22;56302;52.322;5.926;2023-02-13T05:12:37;5.30;95.40
69189;DHT22;56302;52.322;5.926;2023-02-13T05:15:04;5.30;95.40
69189;DHT22;56302;52.322;5.926;2023-02-13T05:17:29;5.40;95.40
69189;DHT22;56302;52.322;5.926;2023-02-13T05:19:55;5.30;95.30
69189;DHT22;56302;52.322;5.926;2023-02-13T05:22:21;5.30;95.50
69189;DHT22;56302;52.322;5.926;2023-02-13T05:25:05;5.40;95.60
69189;DHT22;56302;52.322;5.926;2023-02-13T05:27:30;5.40;95.50
69189;DHT22;56302;52.322;5.926;2023-02-13T05:29:56;5.30;95.60
69189;DHT22;56302;52.322;5.926;2023-02-13T05:32:21;5.30;95.40
69189;DHT22;56302;52.322;5.926;2023-02-13T05:34:47;5.30;95.40
69189;DHT22;56302;52.322;5.926;2023-02-13T05:37:12;5.30;95.20
69189;DHT22;56302;52.322;5.926;2023-02-13T05:39:38;5.30;95.20
69189;DHT22;56302;52.322;5.926;2023-02-13T05:42:03;5.30;95.20
69189;DHT22;56302;52.322;5.926;2023-02-13T05:44:29;5.30;95.40
69189;DHT22;56302;52.322;5.926;2023-02-13T05:46:55;5.30;95.60
69189;DHT22;56302;52.322;5.926;2023-02-13T05:49:21;5.30;95.70
69189;DHT22;56302;52.322;5.926;2023-02-13T05:51:47;5.30;95.60
69189;DHT22;56302;52.322;5.926;2023-02-13T05:54:13;5.30;95.60
69189;DHT22;56302;52.322;5.926;2023-02-13T05:56:39;5.30;95.60
69189;DHT22;56302;52.322;5.926;2023-02-13T05:59:05;5.30;95.60
69189;DHT22;56302;52.322;5.926;2023-02-13T06:01:30;5.30;95.60
69189;DHT22;56302;52.322;5.926;2023-02-13T06:03:56;5.30;95.70
69189;DHT22;56302;52.322;5.926;2023-02-13T06:06:21;5.30;95.70
69189;DHT22;56302;52.322;5.926;2023-02-13T06:08:47;5.30;95.70
69189;DHT22;56302;52.322;5.926;2023-02-13T06:11:13;5.30;95.80
69189;DHT22;56302;52.322;5.926;2023-02-13T06:13:38;5.30;95.70
69189;DHT22;56302;52.322;5.926;2023-02-13T06:16:08;5.30;95.70
69189;DHT22;56302;52.322;5.926;2023-02-13T06:18:34;5.30;95.60
69189;DHT22;56302;52.322;5.926;2023-02-13T06:21:00;5.30;95.30
69189;DHT22;56302;52.322;5.926;2023-02-13T06:23:27;5.30;95.20
69189;DHT22;56302;52.322;5.926;2023-02-13T06:25:52;5.30;95.30
69189;DHT22;56302;52.322;5.926;2023-02-13T06:28:18;5.30;95.20
69189;DHT22;56302;52.322;5.926;2023-02-13T06:30:43;5.30;95.30
69189;DHT22;56302;52.322;5.926;2023-02-13T06:33:09;5.30;95.10
69189;DHT22;56302;52.322;5.926;2023-02-13T06:35:34;5.30;95.20
69189;DHT22;56302;52.322;5.926;2023-02-13T06:38:00;5.30;95.20
69189;DHT22;56302;52.322;5.926;2023-02-13T06:40:25;5.30;95.50
69189;DHT22;56302;52.322;5.926;2023-02-13T06:42:51;5.30;95.30
69189;DHT22;56302;52.322;5.926;2023-02-13T06:45:16;5.30;95.20
69189;DHT22;56302;52.322;5.926;2023-02-13T06:47:43;5.30;95.20
69189;DHT22;56302;52.322;5.926;2023-02-13T06:50:10;5.30;95.20
69189;DHT22;56302;52.322;5.926;2023-02-13T06:52:36;5.30;95.20
69189;DHT22;56302;52.322;5.926;2023-02-13T06:55:02;5.30;95.20
69189;DHT22;56302;52.322;5.926;2023-02-13T06:57:28;5.30;95.40
69189;DHT22;56302;52.322;5.926;2023-02-13T06:59:57;5.30;95.50
69189;DHT22;56302;52.322;5.926;2023-02-13T07:02:23;5.30;95.50
69189;DHT22;56302;52.322;5.926;2023-02-13T07:04:48;5.30;95.50
69189;DHT22;56302;52.322;5.926;2023-02-13T07:07:14;5.30;95.40
69189;DHT22;56302;52.322;5.926;2023-02-13T07:09:39;5.30;95.40
69189;DHT22;56302;52.322;5.926;2023-02-13T07:12:06;5.30;95.50
69189;DHT22;56302;52.322;5.926;2023-02-13T07:14:31;5.30;95.50
69189;DHT22;56302;52.322;5.926;2023-02-13T07:16:57;5.30;95.60
69189;DHT22;56302;52.322;5.926;2023-02-13T07:19:22;5.30;95.60
69189;DHT22;56302;52.322;5.926;2023-02-13T07:21:48;5.30;95.70
69189;DHT22;56302;52.322;5.926;2023-02-13T07:24:13;5.30;95.70
69189;DHT22;56302;52.322;5.926;2023-02-13T07:26:39;5.30;95.60
69189;DHT22;56302;52.322;5.926;2023-02-13T07:29:04;5.30;95.60
69189;DHT22;56302;52.322;5.926;2023-02-13T07:31:35;5.30;95.60
69189;DHT22;56302;52.322;5.926;2023-02-13T07:34:00;5.30;95.60
69189;DHT22;56302;52.322;5.926;2023-02-13T07:36:26;5.30;95.60
69189;DHT22;56302;52.322;5.926;2023-02-13T07:38:52;5.40;95.50
69189;DHT22;56302;52.322;5.926;2023-02-13T07:41:18;5.40;95.50
69189;DHT22;56302;52.322;5.926;2023-02-13T07:43:44;5.40;95.60
69189;DHT22;56302;52.322;5.926;2023-02-13T07:46:09;5.40;95.50
69189;DHT22;56302;52.322;5.926;2023-02-13T07:48:35;5.40;95.50
69189;DHT22;56302;52.322;5.926;2023-02-13T07:51:02;5.40;95.90
69189;DHT22;56302;52.322;5.926;2023-02-13T07:53:28;5.40;95.80
69189;DHT22;56302;52.322;5.926;2023-02-13T07:55:54;5.40;95.90
69189;DHT22;56302;52.322;5.926;2023-02-13T07:58:19;5.50;96.10
69189;DHT22;56302;52.322;5.926;2023-02-13T08:00:45;5.50;96.40
69189;DHT22;56302;52.322;5.926;2023-02-13T08:03:10;5.50;96.00
69189;DHT22;56302;52.322;5.926;2023-02-13T08:05:36;5.50;96.10
69189;DHT22;56302;52.322;5.926;2023-02-13T08:08:03;5.60;96.40
69189;DHT22;56302;52.322;5.926;2023-02-13T08:10:28;5.60;96.40
69189;DHT22;56302;52.322;5.926;2023-02-13T08:13:13;5.60;96.00
69189;DHT22;56302;52.322;5.926;2023-02-13T08:15:39;5.60;95.90
69189;DHT22;56302;52.322;5.926;2023-02-13T08:18:05;5.60;96.00
69189;DHT22;56302;52.322;5.926;2023-02-13T08:20:31;5.70;96.30
69189;DHT22;56302;52.322;5.926;2023-02-13T08:23:07;5.70;96.00
69189;DHT22;56302;52.322;5.926;2023-02-13T08:25:33;5.70;95.90
69189;DHT22;56302;52.322;5.926;2023-02-13T08:27:59;5.80;95.80
69189;DHT22;56302;52.322;5.926;2023-02-13T08:30:25;5.80;95.80
69189;DHT22;56302;52.322;5.926;2023-02-13T08:32:51;5.80;96.00
69189;DHT22;56302;52.322;5.926;2023-02-13T08:35:16;5.80;96.00
69189;DHT22;56302;52.322;5.926;2023-02-13T08:37:42;5.90;96.00
69189;DHT22;56302;52.322;5.926;2023-02-13T08:40:08;5.90;96.10
69189;DHT22;56302;52.322;5.926;2023-02-13T08:42:37;5.90;96.10
69189;DHT22;56302;52.322;5.926;2023-02-13T08:45:03;5.90;96.10
69189;DHT22;56302;52.322;5.926;2023-02-13T08:47:30;6.00;95.80
69189;DHT22;56302;52.322;5.926;2023-02-13T08:49:55;6.00;95.80
69189;DHT22;56302;52.322;5.926;2023-02-13T08:52:21;6.10;95.60
69189;DHT22;56302;52.322;5.926;2023-02-13T08:54:46;6.10;95.40
69189;DHT22;56302;52.322;5.926;2023-02-13T08:57:12;6.10;95.20
69189;DHT22;56302;52.322;5.926;2023-02-13T08:59:37;6.10;94.90
69189;DHT22;56302;52.322;5.926;2023-02-13T09:02:03;6.20;94.80
69189;DHT22;56302;52.322;5.926;2023-02-13T09:04:28;6.20;94.80
69189;DHT22;56302;52.322;5.926;2023-02-13T09:06:55;6.20;94.50
69189;DHT22;56302;52.322;5.926;2023-02-13T09:09:20;6.30;94.40
69189;DHT22;56302;52.322;5.926;2023-02-13T09:11:46;6.30;94.30
69189;DHT22;56302;52.322;5.926;2023-02-13T09:14:11;6.40;94.20
69189;DHT22;56302;52.322;5.926;2023-02-13T09:16:37;6.40;93.90
69189;DHT22;56302;52.322;5.926;2023-02-13T09:19:03;6.50;93.80
69189;DHT22;56302;52.322;5.926;2023-02-13T09:21:28;6.50;93.70
69189;DHT22;56302;52.322;5.926;2023-02-13T09:23:55;6.60;93.70
69189;DHT22;56302;52.322;5.926;2023-02-13T09:26:21;6.60;93.60
69189;DHT22;56302;52.322;5.926;2023-02-13T09:28:46;6.70;93.60
69189;DHT22;56302;52.322;5.926;2023-02-13T09:31:14;6.70;93.50
69189;DHT22;56302;52.322;5.926;2023-02-13T09:33:41;6.70;93.40
69189;DHT22;56302;52.322;5.926;2023-02-13T09:36:09;6.70;93.30
69189;DHT22;56302;52.322;5.926;2023-02-13T09:38:35;6.80;93.30
69189;DHT22;56302;52.322;5.926;2023-02-13T09:41:14;6.80;93.20
69189;DHT22;56302;52.322;5.926;2023-02-13T09:43:52;6.80;93.10
69189;DHT22;56302;52.322;5.926;2023-02-13T09:48:52;6.90;92.90
69189;DHT22;56302;52.322;5.926;2023-02-13T09:51:20;7.00;92.70
69189;DHT22;56302;52.322;5.926;2023-02-13T09:53:56;7.00;92.60
69189;DHT22;56302;52.322;5.926;2023-02-13T09:56:55;7.10;92.40
69189;DHT22;56302;52.322;5.926;2023-02-13T10:02:53;7.20;92.10
69189;DHT22;56302;52.322;5.926;2023-02-13T10:05:39;7.30;91.50
69189;DHT22;56302;52.322;5.926;2023-02-13T10:16:46;7.60;90.50
69189;DHT22;56302;52.322;5.926;2023-02-13T10:22:09;7.60;90.10
69189;DHT22;56302;52.322;5.926;2023-02-13T10:24:50;7.60;90.40
69189;DHT22;56302;52.322;5.926;2023-02-13T10:27:39;7.60;90.20
69189;DHT22;56302;52.322;5.926;2023-02-13T10:30:29;7.70;90.00
69189;DHT22;56302;52.322;5.926;2023-02-13T10:35:41;7.60;89.00
69189;DHT22;56302;52.322;5.926;2023-02-13T10:38:15;7.70;89.50
69189;DHT22;56302;52.322;5.926;2023-02-13T10:40:50;7.70;89.40
69189;DHT22;56302;52.322;5.926;2023-02-13T10:43:20;7.80;88.70
69189;DHT22;56302;52.322;5.926;2023-02-13T10:57:33;8.00;88.40
69189;DHT22;56302;52.322;5.926;2023-02-13T11:02:57;8.00;86.90
69189;DHT22;56302;52.322;5.926;2023-02-13T11:05:29;8.00;86.60
69189;DHT22;56302;52.322;5.926;2023-02-13T11:07:56;8.10;86.60
69189;DHT22;56302;52.322;5.926;2023-02-13T11:10:24;8.10;86.90
69189;DHT22;56302;52.322;5.926;2023-02-13T11:12:50;8.10;86.80
69189;DHT22;56302;52.322;5.926;2023-02-13T11:15:21;8.00;86.60
69189;DHT22;56302;52.322;5.926;2023-02-13T11:17:48;8.10;86.80
69189;DHT22;56302;52.322;5.926;2023-02-13T11:25:59;8.10;87.20
69189;DHT22;56302;52.322;5.926;2023-02-13T11:28:27;8.20;86.60
69189;DHT22;56302;52.322;5.926;2023-02-13T11:31:11;8.30;86.60
69189;DHT22;56302;52.322;5.926;2023-02-13T11:33:38;8.30;86.60
69189;DHT22;56302;52.322;5.926;2023-02-13T11:36:12;8.40;86.10
69189;DHT22;56302;52.322;5.926;2023-02-13T11:38:38;8.30;85.90
69189;DHT22;56302;52.322;5.926;2023-02-13T11:41:13;8.40;86.20
69189;DHT22;56302;52.322;5.926;2023-02-13T11:43:48;8.40;86.00
69189;DHT22;56302;52.322;5.926;2023-02-13T11:46:24;8.50;86.30
69189;DHT22;56302;52.322;5.926;2023-02-13T11:49:03;8.50;86.20
69189;DHT22;56302;52.322;5.926;2023-02-13T11:51:42;8.50;85.80
69189;DHT22;56302;52.322;5.926;2023-02-13T11:54:35;8.40;85.80
69189;DHT22;56302;52.322;5.926;2023-02-13T11:57:12;8.40;86.30
69189;DHT22;56302;52.322;5.926;2023-02-13T11:59:43;8.50;85.80
69189;DHT22;56302;52.322;5.926;2023-02-13T12:02:46;8.50;85.10
69189;DHT22;56302;52.322;5.926;2023-02-13T12:05:18;8.60;85.40
69189;DHT22;56302;52.322;5.926;2023-02-13T12:07:45;8.50;85.40
69189;DHT22;56302;52.322;5.926;2023-02-13T12:13:05;8.50;85.30
69189;DHT22;56302;52.322;5.926;2023-02-13T12:15:37;8.60;86.20
69189;DHT22;56302;52.322;5.926;2023-02-13T12:18:11;8.60;85.30
69189;DHT22;56302;52.322;5.926;2023-02-13T12:21:02;8.60;85.00
69189;DHT22;56302;52.322;5.926;2023-02-13T12:26:30;8.60;84.70
69189;DHT22;56302;52.322;5.926;2023-02-13T12:31:38;8.50;84.90
69189;DHT22;56302;52.322;5.926;2023-02-13T12:34:22;8.50;84.90
69189;DHT22;56302;52.322;5.926;2023-02-13T12:37:06;8.50;84.70
69189;DHT22;56302;52.322;5.926;2023-02-13T12:39:41;8.50;85.00
69189;DHT22;56302;52.322;5.926;2023-02-13T12:42:25;8.50;84.50
69189;DHT22;56302;52.322;5.926;2023-02-13T12:47:50;8.50;85.00
69189;DHT22;56302;52.322;5.926;2023-02-13T12:53:38;8.50;84.70
69189;DHT22;56302;52.322;5.926;2023-02-13T12:56:30;8.70;85.30
69189;DHT22;56302;52.322;5.926;2023-02-13T12:59:16;8.70;83.90
69189;DHT22;56302;52.322;5.926;2023-02-13T13:07:57;8.80;84.00
69189;DHT22;56302;52.322;5.926;2023-02-13T13:10:45;8.90;83.50
69189;DHT22;56302;52.322;5.926;2023-02-13T13:21:25;8.90;83.90
69189;DHT22;56302;52.322;5.926;2023-02-13T13:24:16;9.00;83.30
69189;DHT22;56302;52.322;5.926;2023-02-13T13:26:48;9.00;82.90
69189;DHT22;56302;52.322;5.926;2023-02-13T13:29:20;8.90;82.90
69189;DHT22;56302;52.322;5.926;2023-02-13T13:31:54;9.00;82.60
69189;DHT22;56302;52.322;5.926;2023-02-13T13:34:23;9.00;82.60
69189;DHT22;56302;52.322;5.926;2023-02-13T13:39:38;9.00;82.90
69189;DHT22;56302;52.322;5.926;2023-02-13T13:42:39;8.90;83.20
69189;DHT22;56302;52.322;5.926;2023-02-13T13:45:22;8.90;83.30
69189;DHT22;56302;52.322;5.926;2023-02-13T13:48:27;9.00;83.40
69189;DHT22;56302;52.322;5.926;2023-02-13T13:50:55;9.00;83.00
69189;DHT22;56302;52.322;5.926;2023-02-13T13:53:21;9.10;83.20
69189;DHT22;56302;52.322;5.926;2023-02-13T13:58:43;9.10;82.70
69189;DHT22;56302;52.322;5.926;2023-02-13T14:01:28;9.00;83.00
69189;DHT22;56302;52.322;5.926;2023-02-13T14:06:27;9.00;83.70
69189;DHT22;56302;52.322;5.926;2023-02-13T14:08:56;9.00;83.20
69189;DHT22;56302;52.322;5.926;2023-02-13T14:13:53;9.00;83.70
69189;DHT22;56302;52.322;5.926;2023-02-13T14:19:21;9.00;83.30
69189;DHT22;56302;52.322;5.926;2023-02-13T14:21:48;9.00;83.40
69189;DHT22;56302;52.322;5.926;2023-02-13T14:24:15;8.90;83.40
69189;DHT22;56302;52.322;5.926;2023-02-13T14:26:41;8.90;83.10
69189;DHT22;56302;52.322;5.926;2023-02-13T14:31:49;9.00;83.10
69189;DHT22;56302;52.322;5.926;2023-02-13T14:34:26;9.00;83.10
69189;DHT22;56302;52.322;5.926;2023-02-13T14:39:35;9.00;83.40
69189;DHT22;56302;52.322;5.926;2023-02-13T14:42:03;9.00;83.00
69189;DHT22;56302;52.322;5.926;2023-02-13T14:44:33;9.00;83.30
69189;DHT22;56302;52.322;5.926;2023-02-13T14:47:03;9.10;83.50
69189;DHT22;56302;52.322;5.926;2023-02-13T14:49:33;9.20;83.10
69189;DHT22;56302;52.322;5.926;2023-02-13T14:52:04;9.20;82.90
69189;DHT22;56302;52.322;5.926;2023-02-13T14:54:37;9.20;82.70
69189;DHT22;56302;52.322;5.926;2023-02-13T14:57:22;9.20;82.70
69189;DHT22;56302;52.322;5.926;2023-02-13T14:59:52;9.10;82.90
69189;DHT22;56302;52.322;5.926;2023-02-13T15:02:28;9.10;83.10
69189;DHT22;56302;52.322;5.926;2023-02-13T15:05:00;9.20;82.90
69189;DHT22;56302;52.322;5.926;2023-02-13T15:07:29;9.10;82.90
69189;DHT22;56302;52.322;5.926;2023-02-13T15:10:03;9.10;83.10
69189;DHT22;56302;52.322;5.926;2023-02-13T15:12:34;9.00;83.10
69189;DHT22;56302;52.322;5.926;2023-02-13T15:15:01;9.00;82.70
69189;DHT22;56302;52.322;5.926;2023-02-13T15:17:30;9.00;82.90
69189;DHT22;56302;52.322;5.926;2023-02-13T15:20:23;8.90;83.20
69189;DHT22;56302;52.322;5.926;2023-02-13T15:22:49;8.90;83.60
69189;DHT22;56302;52.322;5.926;2023-02-13T15:27:53;8.80;84.00
69189;DHT22;56302;52.322;5.926;2023-02-13T15:30:24;8.80;84.10
69189;DHT22;56302;52.322;5.926;2023-02-13T15:33:23;8.70;84.00
69189;DHT22;56302;52.322;5.926;2023-02-13T15:35:58;8.70;84.10
69189;DHT22;56302;52.322;5.926;2023-02-13T15:41:00;8.70;84.20
69189;DHT22;56302;52.322;5.926;2023-02-13T15:43:38;8.60;84.50
69189;DHT22;56302;52.322;5.926;2023-02-13T15:46:07;8.60;84.70
69189;DHT22;56302;52.322;5.926;2023-02-13T15:48:42;8.50;85.00
69189;DHT22;56302;52.322;5.926;2023-02-13T15:51:08;8.40;85.30
69189;DHT22;56302;52.322;5.926;2023-02-13T15:53:34;8.40;85.40
69189;DHT22;56302;52.322;5.926;2023-02-13T15:56:02;8.40;85.60
69189;DHT22;56302;52.322;5.926;2023-02-13T15:58:31;8.30;85.80
69189;DHT22;56302;52.322;5.926;2023-02-13T16:01:04;8.30;85.80
69189;DHT22;56302;52.322;5.926;2023-02-13T16:03:32;8.30;85.80
69189;DHT22;56302;52.322;5.926;2023-02-13T16:05:58;8.20;85.70
69189;DHT22;56302;52.322;5.926;2023-02-13T16:13:34;8.10;85.90
69189;DHT22;56302;52.322;5.926;2023-02-13T16:16:01;8.00;86.00
69189;DHT22;56302;52.322;5.926;2023-02-13T16:18:28;7.90;86.30
69189;DHT22;56302;52.322;5.926;2023-02-13T16:20:54;7.80;86.50
69189;DHT22;56302;52.322;5.926;2023-02-13T16:23:20;7.80;86.60
69189;DHT22;56302;52.322;5.926;2023-02-13T16:25:47;7.70;86.90
69189;DHT22;56302;52.322;5.926;2023-02-13T16:28:18;7.60;86.70
69189;DHT22;56302;52.322;5.926;2023-02-13T16:30:50;7.50;87.10
69189;DHT22;56302;52.322;5.926;2023-02-13T16:33:26;7.50;86.90
69189;DHT22;56302;52.322;5.926;2023-02-13T16:35:58;7.40;87.00
69189;DHT22;56302;52.322;5.926;2023-02-13T16:38:37;7.30;87.10
69189;DHT22;56302;52.322;5.926;2023-02-13T16:41:29;7.30;87.50
69189;DHT22;56302;52.322;5.926;2023-02-13T16:44:20;7.20;87.40
69189;DHT22;56302;52.322;5.926;2023-02-13T16:46:54;7.10;87.30
69189;DHT22;56302;52.322;5.926;2023-02-13T16:49:23;7.00;87.40
69189;DHT22;56302;52.322;5.926;2023-02-13T16:52:09;6.90;86.80
69189;DHT22;56302;52.322;5.926;2023-02-13T16:54:54;6.60;88.80
69189;DHT22;56302;52.322;5.926;2023-02-13T16:57:27;6.60;88.80
69189;DHT22;56302;52.322;5.926;2023-02-13T17:00:03;6.60;88.00
69189;DHT22;56302;52.322;5.926;2023-02-13T17:02:37;6.50;88.00
69189;DHT22;56302;52.322;5.926;2023-02-13T17:07:40;6.30;88.40
69189;DHT22;56302;52.322;5.926;2023-02-13T17:10:38;6.30;88.10
69189;DHT22;56302;52.322;5.926;2023-02-13T17:15:33;6.20;87.80
69189;DHT22;56302;52.322;5.926;2023-02-13T17:17:59;6.10;88.00
69189;DHT22;56302;52.322;5.926;2023-02-13T17:20:27;6.10;88.10
69189;DHT22;56302;52.322;5.926;2023-02-13T17:22:55;6.10;88.10
69189;DHT22;56302;52.322;5.926;2023-02-13T17:25:29;6.00;87.90
69189;DHT22;56302;52.322;5.926;2023-02-13T17:28:05;6.00;87.70
69189;DHT22;56302;52.322;5.926;2023-02-13T17:30:32;5.90;87.70
69189;DHT22;56302;52.322;5.926;2023-02-13T17:33:01;5.80;88.00
69189;DHT22;56302;52.322;5.926;2023-02-13T17:35:27;5.70;87.90
69189;DHT22;56302;52.322;5.926;2023-02-13T17:37:53;5.70;88.00
69189;DHT22;56302;52.322;5.926;2023-02-13T17:40:21;5.60;87.90
69189;DHT22;56302;52.322;5.926;2023-02-13T17:42:51;5.50;88.00
69189;DHT22;56302;52.322;5.926;2023-02-13T17:45:18;5.30;88.10
69189;DHT22;56302;52.322;5.926;2023-02-13T17:47:44;5.20;88.70
69189;DHT22;56302;52.322;5.926;2023-02-13T17:50:11;5.20;88.60
69189;DHT22;56302;52.322;5.926;2023-02-13T17:52:37;5.20;88.50
69189;DHT22;56302;52.322;5.926;2023-02-13T17:55:04;5.10;88.40
69189;DHT22;56302;52.322;5.926;2023-02-13T17:57:30;5.10;88.20
69189;DHT22;56302;52.322;5.926;2023-02-13T17:59:56;5.00;88.30
69189;DHT22;56302;52.322;5.926;2023-02-13T18:02:22;5.00;88.40
69189;DHT22;56302;52.322;5.926;2023-02-13T18:04:49;4.90;88.30
69189;DHT22;56302;52.322;5.926;2023-02-13T18:07:17;4.80;88.20
69189;DHT22;56302;52.322;5.926;2023-02-13T18:09:43;4.50;90.00
69189;DHT22;56302;52.322;5.926;2023-02-13T18:12:17;4.20;90.80
69189;DHT22;56302;52.322;5.926;2023-02-13T18:14:45;4.10;91.50
69189;DHT22;56302;52.322;5.926;2023-02-13T18:17:12;4.00;92.10
69189;DHT22;56302;52.322;5.926;2023-02-13T18:19:38;3.90;92.80
69189;DHT22;56302;52.322;5.926;2023-02-13T18:22:05;4.00;92.50
69189;DHT22;56302;52.322;5.926;2023-02-13T18:24:32;4.20;91.40
69189;DHT22;56302;52.322;5.926;2023-02-13T18:26:58;4.20;90.40
69189;DHT22;56302;52.322;5.926;2023-02-13T18:29:24;4.30;90.00
69189;DHT22;56302;52.322;5.926;2023-02-13T18:31:50;4.20;89.80